sensor_id;sensor_type;location;lat;lon;timestamp;pressure;altitude;pressure_sealevel;temperature;humidity
76732;BME280;65656;51.130;13.658;2024-03-06T00:02:09;99372.41;;;1.17;100.00
76732;BME280;65656;51.130;13.658;2024-03-06T00:06:11;99373.41;;;1.16;100.00
76732;BME280;65656;51.130;13.658;2024-03-06T00:10:14;99383.94;;;1.11;100.00
76732;BME280;65656;51.130;13.658;2024-03-06T00:14:17;99387.22;;;1.06;100.00
76732;BME280;65656;51.130;13.658;2024-03-06T00:18:19;99393.00;;;1.03;100.00
76732;BME280;65656;51.130;13.658;2024-03-06T00:22:21;99398.38;;;1.03;100.00
76732;BME280;65656;51.130;13.658;2024-03-06T00:26:25;99403.16;;;1.01;100.00
76732;BME280;65656;51.130;13.658;2024-03-06T00:30:28;99406.09;;;1.06;100.00
76732;BME280;65656;51.130;13.658;2024-03-06T00:34:30;99403.22;;;0.93;100.00
76732;BME280;65656;51.130;13.658;2024-03-06T00:38:33;99405.78;;;0.50;100.00
76732;BME280;65656;51.130;13.658;2024-03-06T00:42:35;99404.31;;;0.63;100.00
76732;BME280;65656;51.130;13.658;2024-03-06T00:46:39;99404.66;;;0.60;100.00
76732;BME280;65656;51.130;13.658;2024-03-06T00:50:41;99405.69;;;0.59;100.00
76732;BME280;65656;51.130;13.658;2024-03-06T00:54:43;99415.34;;;0.38;100.00
76732;BME280;65656;51.130;13.658;2024-03-06T00:58:45;99414.59;;;0.44;100.00
76732;BME280;65656;51.130;13.658;2024-03-06T01:02:49;99412.72;;;0.30;100.00
76732;BME280;65656;51.130;13.658;2024-03-06T01:06:51;99424.25;;;0.24;100.00
76732;BME280;65656;51.130;13.658;2024-03-06T01:10:53;99419.13;;;0.14;100.00
76732;BME280;65656;51.130;13.658;2024-03-06T01:14:56;99419.72;;;0.24;100.00
76732;BME280;65656;51.130;13.658;2024-03-06T01:18:59;99421.50;;;0.32;100.00
76732;BME280;65656;51.130;13.658;2024-03-06T01:23:01;99423.16;;;0.33;100.00
76732;BME280;65656;51.130;13.658;2024-03-06T01:27:03;99422.72;;;0.07;100.00
76732;BME280;65656;51.130;13.658;2024-03-06T01:31:05;99436.56;;;0.04;100.00
76732;BME280;65656;51.130;13.658;2024-03-06T01:35:09;99431.44;;;-0.06;100.00
76732;BME280;65656;51.130;13.658;2024-03-06T01:39:12;99433.72;;;-0.18;100.00
76732;BME280;65656;51.130;13.658;2024-03-06T01:43:20;99430.69;;;-0.15;100.00
76732;BME280;65656;51.130;13.658;2024-03-06T01:47:23;99438.00;;;-0.46;100.00
76732;BME280;65656;51.130;13.658;2024-03-06T01:51:27;99436.91;;;-0.37;100.00
76732;BME280;65656;51.130;13.658;2024-03-06T01:55:29;99434.28;;;-0.45;100.00
76732;BME280;65656;51.130;13.658;2024-03-06T01:59:32;99444.16;;;-0.38;100.00
76732;BME280;65656;51.130;13.658;2024-03-06T02:03:38;99450.06;;;-0.42;100.00
76732;BME280;65656;51.130;13.658;2024-03-06T02:07:43;99446.44;;;-0.58;100.00
76732;BME280;65656;51.130;13.658;2024-03-06T02:11:46;99451.94;;;-0.74;100.00
76732;BME280;65656;51.130;13.658;2024-03-06T02:15:48;99463.31;;;-0.64;100.00
76732;BME280;65656;51.130;13.658;2024-03-06T02:19:50;99454.34;;;-0.56;100.00
76732;BME280;65656;51.130;13.658;2024-03-06T02:23:53;99450.44;;;-0.45;100.00
76732;BME280;65656;51.130;13.658;2024-03-06T02:27:55;99453.69;;;-0.58;100.00
76732;BME280;65656;51.130;13.658;2024-03-06T02:31:58;99441.75;;;-0.87;100.00
76732;BME280;65656;51.130;13.658;2024-03-06T02:36:00;99454.44;;;-1.03;100.00
76732;BME280;65656;51.130;13.658;2024-03-06T02:40:04;99448.19;;;-0.96;100.00
76732;BME280;65656;51.130;13.658;2024-03-06T02:44:08;99464.09;;;-0.86;100.00
76732;BME280;65656;51.130;13.658;2024-03-06T02:48:10;99469.53;;;-1.02;100.00
76732;BME280;65656;51.130;13.658;2024-03-06T02:52:12;99465.22;;;-1.12;100.00
76732;BME280;65656;51.130;13.658;2024-03-06T02:56:17;99477.50;;;-1.17;100.00
76732;BME280;65656;51.130;13.658;2024-03-06T03:00:19;99473.00;;;-1.25;100.00
76732;BME280;65656;51.130;13.658;2024-03-06T03:04:21;99474.66;;;-1.16;100.00
76732;BME280;65656;51.130;13.658;2024-03-06T03:08:23;99480.38;;;-1.19;100.00
76732;BME280;65656;51.130;13.658;2024-03-06T03:12:27;99489.81;;;-1.23;100.00
76732;BME280;65656;51.130;13.658;2024-03-06T03:16:28;99497.19;;;-1.25;100.00
76732;BME280;65656;51.130;13.658;2024-03-06T03:20:30;99497.19;;;-1.25;100.00
76732;BME280;65656;51.130;13.658;2024-03-06T03:24:32;99495.88;;;-1.37;100.00
76732;BME280;65656;51.130;13.658;2024-03-06T03:28:37;99501.59;;;-1.32;100.00
76732;BME280;65656;51.130;13.658;2024-03-06T03:32:39;99507.41;;;-1.12;100.00
76732;BME280;65656;51.130;13.658;2024-03-06T03:36:41;99514.22;;;-0.85;100.00
76732;BME280;65656;51.130;13.658;2024-03-06T03:40:43;99515.22;;;-0.94;100.00
76732;BME280;65656;51.130;13.658;2024-03-06T03:44:47;99518.78;;;-0.63;100.00
76732;BME280;65656;51.130;13.658;2024-03-06T03:48:49;99524.22;;;-0.40;100.00
76732;BME280;65656;51.130;13.658;2024-03-06T03:52:51;99525.09;;;-0.47;100.00
76732;BME280;65656;51.130;13.658;2024-03-06T03:56:53;99534.91;;;-0.54;100.00
76732;BME280;65656;51.130;13.658;2024-03-06T04:00:56;99536.41;;;-0.52;100.00
76732;BME280;65656;51.130;13.658;2024-03-06T04:05:00;99547.66;;;-0.48;100.00
76732;BME280;65656;51.130;13.658;2024-03-06T04:09:02;99541.38;;;-0.72;100.00
76732;BME280;65656;51.130;13.658;2024-03-06T04:13:04;99543.28;;;-0.89;100.00
76732;BME280;65656;51.130;13.658;2024-03-06T04:17:08;99542.31;;;-0.96;100.00
76732;BME280;65656;51.130;13.658;2024-03-06T04:21:10;99540.19;;;-1.08;100.00
76732;BME280;65656;51.130;13.658;2024-03-06T04:25:12;99552.66;;;-1.24;100.00
76732;BME280;65656;51.130;13.658;2024-03-06T04:29:14;99543.94;;;-1.42;100.00
76732;BME280;65656;51.130;13.658;2024-03-06T04:33:17;99553.34;;;-1.46;100.00
76732;BME280;65656;51.130;13.658;2024-03-06T04:37:19;99558.72;;;-1.38;100.00
76732;BME280;65656;51.130;13.658;2024-03-06T04:41:21;99549.28;;;-1.34;100.00
76732;BME280;65656;51.130;13.658;2024-03-06T04:45:23;99560.06;;;-1.50;100.00
76732;BME280;65656;51.130;13.658;2024-03-06T04:49:26;99567.97;;;-1.65;100.00
76732;BME280;65656;51.130;13.658;2024-03-06T04:53:28;99571.81;;;-1.76;100.00
76732;BME280;65656;51.130;13.658;2024-03-06T04:57:30;99574.88;;;-1.79;100.00
76732;BME280;65656;51.130;13.658;2024-03-06T05:01:32;99576.84;;;-1.81;100.00
76732;BME280;65656;51.130;13.658;2024-03-06T05:05:36;99580.91;;;-1.77;100.00
76732;BME280;65656;51.130;13.658;2024-03-06T05:09:55;99590.63;;;-1.84;100.00
76732;BME280;65656;51.130;13.658;2024-03-06T05:14:14;99587.59;;;-1.89;100.00
76732;BME280;65656;51.130;13.658;2024-03-06T05:18:34;99586.56;;;-1.96;100.00
76732;BME280;65656;51.130;13.658;2024-03-06T05:22:54;99588.56;;;-2.06;100.00
76732;BME280;65656;51.130;13.658;2024-03-06T05:27:14;99598.66;;;-2.00;100.00
76732;BME280;65656;51.130;13.658;2024-03-06T05:31:33;99591.59;;;-2.17;100.00
76732;BME280;65656;51.130;13.658;2024-03-06T05:35:53;99606.47;;;-2.31;100.00
76732;BME280;65656;51.130;13.658;2024-03-06T05:40:14;99611.09;;;-2.41;100.00
76732;BME280;65656;51.130;13.658;2024-03-06T05:44:34;99612.69;;;-2.31;100.00
76732;BME280;65656;51.130;13.658;2024-03-06T05:48:53;99625.78;;;-2.19;100.00
76732;BME280;65656;51.130;13.658;2024-03-06T05:53:12;99623.25;;;-2.29;100.00
76732;BME280;65656;51.130;13.658;2024-03-06T05:57:33;99628.97;;;-2.24;100.00
76732;BME280;65656;51.130;13.658;2024-03-06T06:01:52;99630.00;;;-2.17;100.00
76732;BME280;65656;51.130;13.658;2024-03-06T06:05:55;99635.88;;;-2.13;100.00
76732;BME280;65656;51.130;13.658;2024-03-06T06:09:57;99642.25;;;-2.14;100.00
76732;BME280;65656;51.130;13.658;2024-03-06T06:14:01;99646.59;;;-2.13;100.00
76732;BME280;65656;51.130;13.658;2024-03-06T06:18:04;99647.63;;;-2.06;100.00
76732;BME280;65656;51.130;13.658;2024-03-06T06:22:06;99661.44;;;-2.01;100.00
76732;BME280;65656;51.130;13.658;2024-03-06T06:26:08;99669.50;;;-1.93;100.00
76732;BME280;65656;51.130;13.658;2024-03-06T06:30:13;99673.88;;;-1.84;100.00
76732;BME280;65656;51.130;13.658;2024-03-06T06:34:15;99665.66;;;-1.82;100.00
76732;BME280;65656;51.130;13.658;2024-03-06T06:38:17;99677.06;;;-1.72;100.00
76732;BME280;65656;51.130;13.658;2024-03-06T06:42:19;99671.59;;;-1.62;100.00
76732;BME280;65656;51.130;13.658;2024-03-06T06:46:23;99680.31;;;-1.52;100.00
76732;BME280;65656;51.130;13.658;2024-03-06T06:50:25;99683.69;;;-1.42;100.00
76732;BME280;65656;51.130;13.658;2024-03-06T06:54:27;99687.38;;;-1.35;100.00
76732;BME280;65656;51.130;13.658;2024-03-06T06:58:29;99694.78;;;-1.29;100.00
76732;BME280;65656;51.130;13.658;2024-03-06T07:02:32;99688.75;;;-1.23;100.00
76732;BME280;65656;51.130;13.658;2024-03-06T07:06:34;99701.34;;;-1.15;100.00
76732;BME280;65656;51.130;13.658;2024-03-06T07:10:36;99705.88;;;-1.07;100.00
76732;BME280;65656;51.130;13.658;2024-03-06T07:14:38;99709.91;;;-1.12;100.00
76732;BME280;65656;51.130;13.658;2024-03-06T07:18:42;99710.25;;;-1.06;100.00
76732;BME280;65656;51.130;13.658;2024-03-06T07:22:44;99706.19;;;-1.02;100.00
76732;BME280;65656;51.130;13.658;2024-03-06T07:26:46;99708.88;;;-0.94;100.00
76732;BME280;65656;51.130;13.658;2024-03-06T07:30:48;99712.94;;;-0.90;100.00
76732;BME280;65656;51.130;13.658;2024-03-06T07:34:52;99715.97;;;-0.93;100.00
76732;BME280;65656;51.130;13.658;2024-03-06T07:38:55;99720.00;;;-0.97;100.00
76732;BME280;65656;51.130;13.658;2024-03-06T07:42:57;99730.06;;;-0.91;100.00
76732;BME280;65656;51.130;13.658;2024-03-06T07:47:00;99734.09;;;-0.95;100.00
76732;BME280;65656;51.130;13.658;2024-03-06T07:51:04;99727.88;;;-0.79;100.00
76732;BME280;65656;51.130;13.658;2024-03-06T07:55:06;99725.34;;;-0.81;100.00
76732;BME280;65656;51.130;13.658;2024-03-06T07:59:08;99735.09;;;-0.72;100.00
76732;BME280;65656;51.130;13.658;2024-03-06T08:03:10;99735.59;;;-0.68;100.00
76732;BME280;65656;51.130;13.658;2024-03-06T08:07:14;99739.13;;;-0.60;100.00
76732;BME280;65656;51.130;13.658;2024-03-06T08:11:16;99734.41;;;-0.66;100.00
76732;BME280;65656;51.130;13.658;2024-03-06T08:15:19;99741.47;;;-0.65;100.00
76732;BME280;65656;51.130;13.658;2024-03-06T08:19:21;99761.66;;;-0.52;100.00
76732;BME280;65656;51.130;13.658;2024-03-06T08:23:24;99755.25;;;-0.43;100.00
76732;BME280;65656;51.130;13.658;2024-03-06T08:27:26;99760.94;;;-0.30;100.00
76732;BME280;65656;51.130;13.658;2024-03-06T08:31:29;99765.78;;;-0.17;100.00
76732;BME280;65656;51.130;13.658;2024-03-06T08:35:31;99779.03;;;0.01;100.00
76732;BME280;65656;51.130;13.658;2024-03-06T08:39:35;99764.25;;;-0.12;100.00
76732;BME280;65656;51.130;13.658;2024-03-06T08:43:37;99762.94;;;-0.32;100.00
76732;BME280;65656;51.130;13.658;2024-03-06T08:47:39;99773.88;;;-0.25;100.00
76732;BME280;65656;51.130;13.658;2024-03-06T08:51:41;99780.78;;;-0.23;100.00
76732;BME280;65656;51.130;13.658;2024-03-06T08:55:45;99781.09;;;-0.18;100.00
76732;BME280;65656;51.130;13.658;2024-03-06T08:59:47;99776.16;;;0.02;100.00
76732;BME280;65656;51.130;13.658;2024-03-06T09:03:49;99780.66;;;0.18;100.00
76732;BME280;65656;51.130;13.658;2024-03-06T09:07:52;99775.72;;;0.61;100.00
76732;BME280;65656;51.130;13.658;2024-03-06T09:11:55;99782.34;;;0.50;100.00
76732;BME280;65656;51.130;13.658;2024-03-06T09:15:58;99788.97;;;1.01;100.00
76732;BME280;65656;51.130;13.658;2024-03-06T09:20:00;99787.16;;;0.94;100.00
76732;BME280;65656;51.130;13.658;2024-03-06T09:24:10;99795.88;;;0.73;100.00
76732;BME280;65656;51.130;13.658;2024-03-06T09:28:14;99801.06;;;1.05;100.00
76732;BME280;65656;51.130;13.658;2024-03-06T09:32:16;99793.88;;;1.21;100.00
76732;BME280;65656;51.130;13.658;2024-03-06T09:36:20;99791.06;;;1.52;100.00
76732;BME280;65656;51.130;13.658;2024-03-06T09:40:23;99796.50;;;1.29;100.00
76732;BME280;65656;51.130;13.658;2024-03-06T09:44:27;99799.84;;;1.31;100.00
76732;BME280;65656;51.130;13.658;2024-03-06T09:48:30;99806.84;;;1.25;100.00
76732;BME280;65656;51.130;13.658;2024-03-06T09:52:33;99807.38;;;1.58;100.00
76732;BME280;65656;51.130;13.658;2024-03-06T09:56:36;99813.88;;;1.49;100.00
76732;BME280;65656;51.130;13.658;2024-03-06T10:00:39;99810.97;;;1.74;100.00
76732;BME280;65656;51.130;13.658;2024-03-06T10:04:41;99793.19;;;2.09;100.00
76732;BME280;65656;51.130;13.658;2024-03-06T10:08:46;99798.34;;;2.69;100.00
76732;BME280;65656;51.130;13.658;2024-03-06T10:12:49;99806.22;;;2.86;100.00
76732;BME280;65656;51.130;13.658;2024-03-06T10:16:56;99803.31;;;3.23;100.00
76732;BME280;65656;51.130;13.658;2024-03-06T10:20:58;99797.19;;;3.36;100.00
76732;BME280;65656;51.130;13.658;2024-03-06T10:25:00;99800.97;;;3.42;100.00
76732;BME280;65656;51.130;13.658;2024-03-06T10:29:02;99802.91;;;3.48;100.00
76732;BME280;65656;51.130;13.658;2024-03-06T10:33:06;99802.41;;;3.59;100.00
76732;BME280;65656;51.130;13.658;2024-03-06T10:37:08;99801.66;;;3.72;100.00
76732;BME280;65656;51.130;13.658;2024-03-06T10:41:12;99814.31;;;3.92;100.00
76732;BME280;65656;51.130;13.658;2024-03-06T10:45:20;99804.41;;;4.06;100.00
76732;BME280;65656;51.130;13.658;2024-03-06T10:49:27;99805.56;;;4.25;100.00
76732;BME280;65656;51.130;13.658;2024-03-06T10:53:31;99811.25;;;4.30;100.00
76732;BME280;65656;51.130;13.658;2024-03-06T10:57:36;99805.47;;;4.46;100.00
76732;BME280;65656;51.130;13.658;2024-03-06T11:01:39;99808.09;;;4.68;100.00
76732;BME280;65656;51.130;13.658;2024-03-06T11:05:44;99812.66;;;4.61;100.00
76732;BME280;65656;51.130;13.658;2024-03-06T11:09:46;99819.13;;;4.60;100.00
76732;BME280;65656;51.130;13.658;2024-03-06T11:13:48;99825.22;;;4.68;100.00
76732;BME280;65656;51.130;13.658;2024-03-06T11:17:50;99813.00;;;4.44;100.00
76732;BME280;65656;51.130;13.658;2024-03-06T11:21:54;99811.50;;;4.90;100.00
76732;BME280;65656;51.130;13.658;2024-03-06T11:26:00;99809.47;;;4.57;100.00
76732;BME280;65656;51.130;13.658;2024-03-06T11:30:09;99818.41;;;4.44;100.00
76732;BME280;65656;51.130;13.658;2024-03-06T11:34:11;99815.94;;;4.15;100.00
76732;BME280;65656;51.130;13.658;2024-03-06T11:38:19;99809.69;;;4.56;100.00
76732;BME280;65656;51.130;13.658;2024-03-06T11:42:33;99812.69;;;4.67;100.00
76732;BME280;65656;51.130;13.658;2024-03-06T11:46:42;99823.84;;;4.44;100.00
76732;BME280;65656;51.130;13.658;2024-03-06T11:50:44;99817.59;;;4.51;100.00
76732;BME280;65656;51.130;13.658;2024-03-06T11:54:48;99818.16;;;4.81;100.00
76732;BME280;65656;51.130;13.658;2024-03-06T11:58:50;99815.56;;;4.66;100.00
76732;BME280;65656;51.130;13.658;2024-03-06T12:02:52;99813.38;;;4.89;100.00
76732;BME280;65656;51.130;13.658;2024-03-06T12:06:56;99814.13;;;5.57;100.00
76732;BME280;65656;51.130;13.658;2024-03-06T12:11:00;99811.03;;;5.94;100.00
76732;BME280;65656;51.130;13.658;2024-03-06T12:15:04;99807.41;;;6.39;100.00
76732;BME280;65656;51.130;13.658;2024-03-06T12:19:06;99816.56;;;6.58;100.00
76732;BME280;65656;51.130;13.658;2024-03-06T12:23:08;99807.88;;;5.77;100.00
76732;BME280;65656;51.130;13.658;2024-03-06T12:27:12;99811.59;;;5.36;100.00
76732;BME280;65656;51.130;13.658;2024-03-06T12:31:14;99814.53;;;5.35;100.00
76732;BME280;65656;51.130;13.658;2024-03-06T12:35:24;99816.63;;;5.39;100.00
76732;BME280;65656;51.130;13.658;2024-03-06T12:39:26;99800.72;;;5.36;100.00
76732;BME280;65656;51.130;13.658;2024-03-06T12:43:29;99802.03;;;5.53;100.00
76732;BME280;65656;51.130;13.658;2024-03-06T12:47:31;99809.16;;;6.07;100.00
76732;BME280;65656;51.130;13.658;2024-03-06T12:51:34;99814.78;;;5.46;100.00
76732;BME280;65656;51.130;13.658;2024-03-06T12:55:36;99810.38;;;5.39;100.00
76732;BME280;65656;51.130;13.658;2024-03-06T12:59:39;99804.09;;;5.65;100.00
76732;BME280;65656;51.130;13.658;2024-03-06T13:03:41;99805.16;;;6.03;100.00
76732;BME280;65656;51.130;13.658;2024-03-06T13:07:44;99809.47;;;7.02;96.93
76732;BME280;65656;51.130;13.658;2024-03-06T13:11:46;99814.31;;;8.13;85.62
76732;BME280;65656;51.130;13.658;2024-03-06T13:15:50;99814.28;;;7.95;79.92
76732;BME280;65656;51.130;13.658;2024-03-06T13:19:53;99822.09;;;8.34;79.53
76732;BME280;65656;51.130;13.658;2024-03-06T13:23:55;99816.56;;;8.16;74.82
76732;BME280;65656;51.130;13.658;2024-03-06T13:27:57;99819.13;;;6.98;79.36
76732;BME280;65656;51.130;13.658;2024-03-06T13:32:01;99810.69;;;7.06;77.09
76732;BME280;65656;51.130;13.658;2024-03-06T13:36:04;99816.44;;;8.11;71.53
76732;BME280;65656;51.130;13.658;2024-03-06T13:40:07;99815.75;;;8.77;66.60
76732;BME280;65656;51.130;13.658;2024-03-06T13:44:10;99824.31;;;7.44;78.31
76732;BME280;65656;51.130;13.658;2024-03-06T13:48:14;99813.72;;;6.20;81.71
76732;BME280;65656;51.130;13.658;2024-03-06T13:52:16;99815.00;;;5.78;85.83
76732;BME280;65656;51.130;13.658;2024-03-06T13:56:18;99814.56;;;5.54;91.85
76732;BME280;65656;51.130;13.658;2024-03-06T14:00:20;99813.28;;;5.50;91.83
76732;BME280;65656;51.130;13.658;2024-03-06T14:04:24;99815.41;;;5.75;90.78
76732;BME280;65656;51.130;13.658;2024-03-06T14:08:26;99826.94;;;6.03;76.29
76732;BME280;65656;51.130;13.658;2024-03-06T14:12:28;99817.09;;;5.76;78.01
76732;BME280;65656;51.130;13.658;2024-03-06T14:16:30;99819.81;;;5.76;82.05
76732;BME280;65656;51.130;13.658;2024-03-06T14:20:34;99824.56;;;6.40;84.95
76732;BME280;65656;51.130;13.658;2024-03-06T14:24:36;99819.50;;;6.50;79.62
76732;BME280;65656;51.130;13.658;2024-03-06T14:28:38;99830.47;;;5.84;81.55
76732;BME280;65656;51.130;13.658;2024-03-06T14:32:40;99833.34;;;5.36;85.51
76732;BME280;65656;51.130;13.658;2024-03-06T14:36:44;99829.13;;;5.14;87.99
76732;BME280;65656;51.130;13.658;2024-03-06T14:40:46;99824.03;;;4.97;89.62
76732;BME280;65656;51.130;13.658;2024-03-06T14:44:49;99829.13;;;5.14;89.56
76732;BME280;65656;51.130;13.658;2024-03-06T14:48:52;99836.25;;;5.28;84.96
76732;BME280;65656;51.130;13.658;2024-03-06T14:52:56;99829.19;;;5.67;85.71
76732;BME280;65656;51.130;13.658;2024-03-06T14:56:58;99848.00;;;5.48;82.13
76732;BME280;65656;51.130;13.658;2024-03-06T15:01:00;99848.34;;;5.19;85.02
76732;BME280;65656;51.130;13.658;2024-03-06T15:05:03;99842.84;;;4.92;88.36
76732;BME280;65656;51.130;13.658;2024-03-06T15:09:07;99845.72;;;4.78;86.89
76732;BME280;65656;51.130;13.658;2024-03-06T15:13:09;99853.56;;;4.66;88.38
76732;BME280;65656;51.130;13.658;2024-03-06T15:17:11;99848.38;;;4.71;86.92
76732;BME280;65656;51.130;13.658;2024-03-06T15:21:13;99849.41;;;4.63;89.67
76732;BME280;65656;51.130;13.658;2024-03-06T15:25:17;99856.78;;;4.41;89.49
76732;BME280;65656;51.130;13.658;2024-03-06T15:29:19;99855.53;;;4.37;90.07
76732;BME280;65656;51.130;13.658;2024-03-06T15:33:21;99857.19;;;4.38;89.28
76732;BME280;65656;51.130;13.658;2024-03-06T15:37:24;99858.44;;;4.42;86.15
76732;BME280;65656;51.130;13.658;2024-03-06T15:41:27;99858.44;;;4.42;86.95
76732;BME280;65656;51.130;13.658;2024-03-06T15:45:30;99857.19;;;4.38;92.50
76732;BME280;65656;51.130;13.658;2024-03-06T15:49:32;99849.84;;;4.32;94.28
76732;BME280;65656;51.130;13.658;2024-03-06T15:53:35;99853.75;;;4.23;95.00
76732;BME280;65656;51.130;13.658;2024-03-06T15:57:38;99853.28;;;4.13;94.98
76732;BME280;65656;51.130;13.658;2024-03-06T16:01:40;99847.59;;;4.08;93.79
76732;BME280;65656;51.130;13.658;2024-03-06T16:05:43;99853.16;;;4.00;94.28
76732;BME280;65656;51.130;13.658;2024-03-06T16:09:45;99856.03;;;3.91;95.65
76732;BME280;65656;51.130;13.658;2024-03-06T16:13:49;99855.13;;;3.84;98.29
76732;BME280;65656;51.130;13.658;2024-03-06T16:17:51;99855.53;;;3.81;98.73
76732;BME280;65656;51.130;13.658;2024-03-06T16:21:54;99859.91;;;3.82;100.00
76732;BME280;65656;51.130;13.658;2024-03-06T16:25:56;99861.81;;;3.88;100.00
76732;BME280;65656;51.130;13.658;2024-03-06T16:29:59;99867.25;;;3.88;100.00
76732;BME280;65656;51.130;13.658;2024-03-06T16:34:01;99873.97;;;3.92;96.43
76732;BME280;65656;51.130;13.658;2024-03-06T16:38:03;99867.72;;;3.92;100.00
76732;BME280;65656;51.130;13.658;2024-03-06T16:42:06;99876.41;;;3.87;100.00
76732;BME280;65656;51.130;13.658;2024-03-06T16:46:11;99881.59;;;3.82;100.00
76732;BME280;65656;51.130;13.658;2024-03-06T16:50:13;99888.06;;;3.81;100.00
76732;BME280;65656;51.130;13.658;2024-03-06T16:54:15;99889.75;;;3.82;100.00
76732;BME280;65656;51.130;13.658;2024-03-06T16:58:18;99891.97;;;3.79;100.00
76732;BME280;65656;51.130;13.658;2024-03-06T17:02:21;99896.28;;;3.73;100.00
76732;BME280;65656;51.130;13.658;2024-03-06T17:06:23;99899.00;;;3.73;100.00
76732;BME280;65656;51.130;13.658;2024-03-06T17:10:25;99910.19;;;3.63;100.00
76732;BME280;65656;51.130;13.658;2024-03-06T17:14:27;99909.47;;;3.55;100.00
76732;BME280;65656;51.130;13.658;2024-03-06T17:18:34;99918.63;;;3.54;100.00
76732;BME280;65656;51.130;13.658;2024-03-06T17:22:36;99919.41;;;3.48;100.00
76732;BME280;65656;51.130;13.658;2024-03-06T17:26:38;99926.25;;;3.44;100.00
76732;BME280;65656;51.130;13.658;2024-03-06T17:30:40;99925.56;;;3.42;100.00
76732;BME280;65656;51.130;13.658;2024-03-06T17:34:44;99922.22;;;3.40;100.00
76732;BME280;65656;51.130;13.658;2024-03-06T17:38:46;99933.44;;;3.37;100.00
76732;BME280;65656;51.130;13.658;2024-03-06T17:42:48;99935.13;;;3.38;100.00
76732;BME280;65656;51.130;13.658;2024-03-06T17:46:51;99939.63;;;3.30;100.00
76732;BME280;65656;51.130;13.658;2024-03-06T17:50:54;99940.03;;;3.27;100.00
76732;BME280;65656;51.130;13.658;2024-03-06T17:54:56;99939.53;;;3.24;100.00
76732;BME280;65656;51.130;13.658;2024-03-06T17:58:58;99937.03;;;3.22;100.00
76732;BME280;65656;51.130;13.658;2024-03-06T18:03:00;99948.25;;;3.19;100.00
76732;BME280;65656;51.130;13.658;2024-03-06T18:07:03;99942.34;;;3.16;100.00
76732;BME280;65656;51.130;13.658;2024-03-06T18:11:05;99954.88;;;3.17;100.00
76732;BME280;65656;51.130;13.658;2024-03-06T18:15:08;99953.09;;;3.09;100.00
76732;BME280;65656;51.130;13.658;2024-03-06T18:19:10;99957.69;;;3.08;100.00
76732;BME280;65656;51.130;13.658;2024-03-06T18:23:14;99959.56;;;3.08;100.00
76732;BME280;65656;51.130;13.658;2024-03-06T18:27:17;99958.81;;;2.99;100.00
76732;BME280;65656;51.130;13.658;2024-03-06T18:31:19;99961.13;;;2.88;100.00
76732;BME280;65656;51.130;13.658;2024-03-06T18:35:23;99959.38;;;2.65;100.00
76732;BME280;65656;51.130;13.658;2024-03-06T18:39:27;99958.53;;;2.50;100.00
76732;BME280;65656;51.130;13.658;2024-03-06T18:43:29;99961.94;;;2.29;100.00
76732;BME280;65656;51.130;13.658;2024-03-06T18:47:31;99959.56;;;2.11;100.00
76732;BME280;65656;51.130;13.658;2024-03-06T18:51:34;99962.50;;;1.87;100.00
76732;BME280;65656;51.130;13.658;2024-03-06T18:55:38;99954.41;;;1.79;100.00
76732;BME280;65656;51.130;13.658;2024-03-06T18:59:41;99967.03;;;1.63;100.00
76732;BME280;65656;51.130;13.658;2024-03-06T19:03:43;99968.09;;;1.54;100.00
76732;BME280;65656;51.130;13.658;2024-03-06T19:07:45;99965.44;;;1.46;100.00
76732;BME280;65656;51.130;13.658;2024-03-06T19:11:49;99962.09;;;1.44;100.00
76732;BME280;65656;51.130;13.658;2024-03-06T19:15:51;99971.22;;;1.43;100.00
76732;BME280;65656;51.130;13.658;2024-03-06T19:19:53;99969.53;;;1.42;100.00
76732;BME280;65656;51.130;13.658;2024-03-06T19:23:55;99971.78;;;1.30;100.00
76732;BME280;65656;51.130;13.658;2024-03-06T19:27:59;99977.19;;;1.30;100.00
76732;BME280;65656;51.130;13.658;2024-03-06T19:32:01;99980.94;;;1.52;100.00
76732;BME280;65656;51.130;13.658;2024-03-06T19:36:03;99984.13;;;1.79;100.00
76732;BME280;65656;51.130;13.658;2024-03-06T19:40:07;99989.84;;;1.84;100.00
76732;BME280;65656;51.130;13.658;2024-03-06T19:44:10;99988.63;;;1.86;100.00
76732;BME280;65656;51.130;13.658;2024-03-06T19:48:12;99986.75;;;1.95;100.00
76732;BME280;65656;51.130;13.658;2024-03-06T19:52:14;99993.00;;;1.95;100.00
76732;BME280;65656;51.130;13.658;2024-03-06T19:56:17;99993.81;;;1.96;100.00
76732;BME280;65656;51.130;13.658;2024-03-06T20:00:20;99992.88;;;1.89;100.00
76732;BME280;65656;51.130;13.658;2024-03-06T20:04:23;99989.84;;;1.84;100.00
76732;BME280;65656;51.130;13.658;2024-03-06T20:08:24;99989.25;;;1.74;100.00
76732;BME280;65656;51.130;13.658;2024-03-06T20:12:27;99991.03;;;1.58;100.00
76732;BME280;65656;51.130;13.658;2024-03-06T20:16:30;99984.66;;;1.51;100.00
76732;BME280;65656;51.130;13.658;2024-03-06T20:20:32;99998.34;;;1.50;100.00
76732;BME280;65656;51.130;13.658;2024-03-06T20:24:34;99988.03;;;1.53;100.00
76732;BME280;65656;51.130;13.658;2024-03-06T20:28:36;99990.06;;;1.51;100.00
76732;BME280;65656;51.130;13.658;2024-03-06T20:32:40;99996.13;;;1.53;100.00
76732;BME280;65656;51.130;13.658;2024-03-06T20:36:42;99993.41;;;1.53;100.00
76732;BME280;65656;51.130;13.658;2024-03-06T20:40:44;99992.34;;;1.62;100.00
76732;BME280;65656;51.130;13.658;2024-03-06T20:44:46;99990.09;;;1.74;100.00
76732;BME280;65656;51.130;13.658;2024-03-06T20:48:51;99981.09;;;1.82;100.00
76732;BME280;65656;51.130;13.658;2024-03-06T20:52:53;99984.38;;;1.92;100.00
76732;BME280;65656;51.130;13.658;2024-03-06T20:56:55;99987.66;;;2.02;100.00
76732;BME280;65656;51.130;13.658;2024-03-06T21:00:58;99985.78;;;2.11;100.00
76732;BME280;65656;51.130;13.658;2024-03-06T21:05:04;99986.22;;;2.14;100.00
76732;BME280;65656;51.130;13.658;2024-03-06T21:09:06;99987.91;;;2.15;100.00